sensor_id;sensor_type;location;lat;lon;timestamp;P1;durP1;ratioP1;P2;durP2;ratioP2
71975;SDS011;60680;52.182;5.398;2022-07-01T00:01:27;12.68;;;7.18;;
71975;SDS011;60680;52.182;5.398;2022-07-01T00:03:54;13.93;;;7.68;;
71975;SDS011;60680;52.182;5.398;2022-07-01T00:06:21;16.37;;;7.97;;
71975;SDS011;60680;52.182;5.398;2022-07-01T00:08:47;15.52;;;7.95;;
71975;SDS011;60680;52.182;5.398;2022-07-01T00:11:14;14.70;;;7.85;;
71975;SDS011;60680;52.182;5.398;2022-07-01T00:13:41;12.85;;;7.30;;
71975;SDS011;60680;52.182;5.398;2022-07-01T00:16:07;13.40;;;7.00;;
71975;SDS011;60680;52.182;5.398;2022-07-01T00:18:34;12.43;;;7.43;;
71975;SDS011;60680;52.182;5.398;2022-07-01T00:21:01;15.20;;;7.13;;
71975;SDS011;60680;52.182;5.398;2022-07-01T00:23:27;14.75;;;7.65;;
71975;SDS011;60680;52.182;5.398;2022-07-01T00:25:54;15.60;;;7.70;;
71975;SDS011;60680;52.182;5.398;2022-07-01T00:28:20;13.43;;;7.70;;
71975;SDS011;60680;52.182;5.398;2022-07-01T00:30:47;12.63;;;7.67;;
71975;SDS011;60680;52.182;5.398;2022-07-01T00:33:13;11.70;;;6.38;;
71975;SDS011;60680;52.182;5.398;2022-07-01T00:35:40;12.13;;;6.78;;
71975;SDS011;60680;52.182;5.398;2022-07-01T00:38:07;12.25;;;7.38;;
71975;SDS011;60680;52.182;5.398;2022-07-01T00:40:33;14.10;;;7.00;;
71975;SDS011;60680;52.182;5.398;2022-07-01T00:43:00;14.07;;;6.80;;
71975;SDS011;60680;52.182;5.398;2022-07-01T00:45:26;9.90;;;6.28;;
71975;SDS011;60680;52.182;5.398;2022-07-01T00:47:53;12.25;;;6.80;;
71975;SDS011;60680;52.182;5.398;2022-07-01T00:50:19;10.75;;;6.18;;
71975;SDS011;60680;52.182;5.398;2022-07-01T00:52:46;11.55;;;6.85;;
71975;SDS011;60680;52.182;5.398;2022-07-01T00:55:14;11.13;;;6.00;;
71975;SDS011;60680;52.182;5.398;2022-07-01T00:57:41;14.60;;;6.88;;
71975;SDS011;60680;52.182;5.398;2022-07-01T01:00:10;11.85;;;6.85;;
71975;SDS011;60680;52.182;5.398;2022-07-01T01:02:39;14.55;;;7.30;;
71975;SDS011;60680;52.182;5.398;2022-07-01T01:05:09;12.85;;;7.45;;
71975;SDS011;60680;52.182;5.398;2022-07-01T01:07:36;15.37;;;8.23;;
71975;SDS011;60680;52.182;5.398;2022-07-01T01:10:03;14.15;;;7.68;;
71975;SDS011;60680;52.182;5.398;2022-07-01T01:12:29;14.82;;;8.15;;
71975;SDS011;60680;52.182;5.398;2022-07-01T01:14:58;14.70;;;8.07;;
71975;SDS011;60680;52.182;5.398;2022-07-01T01:17:25;17.08;;;9.30;;
71975;SDS011;60680;52.182;5.398;2022-07-01T01:19:53;19.97;;;9.50;;
71975;SDS011;60680;52.182;5.398;2022-07-01T01:22:20;16.75;;;9.18;;
71975;SDS011;60680;52.182;5.398;2022-07-01T01:24:47;17.92;;;9.27;;
71975;SDS011;60680;52.182;5.398;2022-07-01T01:27:13;18.90;;;9.38;;
71975;SDS011;60680;52.182;5.398;2022-07-01T01:29:40;16.23;;;9.45;;
71975;SDS011;60680;52.182;5.398;2022-07-01T01:32:07;17.67;;;10.13;;
71975;SDS011;60680;52.182;5.398;2022-07-01T01:34:34;20.52;;;9.93;;
71975;SDS011;60680;52.182;5.398;2022-07-01T01:37:07;19.98;;;10.20;;
71975;SDS011;60680;52.182;5.398;2022-07-01T01:39:34;18.17;;;9.75;;
71975;SDS011;60680;52.182;5.398;2022-07-01T01:42:06;20.27;;;10.65;;
71975;SDS011;60680;52.182;5.398;2022-07-01T01:44:33;20.70;;;10.30;;
71975;SDS011;60680;52.182;5.398;2022-07-01T01:47:00;25.33;;;10.65;;
71975;SDS011;60680;52.182;5.398;2022-07-01T01:49:27;19.65;;;11.52;;
71975;SDS011;60680;52.182;5.398;2022-07-01T01:51:54;20.60;;;11.27;;
71975;SDS011;60680;52.182;5.398;2022-07-01T01:54:23;24.70;;;12.00;;
71975;SDS011;60680;52.182;5.398;2022-07-01T01:56:50;22.10;;;11.40;;
71975;SDS011;60680;52.182;5.398;2022-07-01T01:59:17;19.70;;;10.88;;
71975;SDS011;60680;52.182;5.398;2022-07-01T02:01:43;23.25;;;10.88;;
71975;SDS011;60680;52.182;5.398;2022-07-01T02:04:10;22.85;;;12.20;;
71975;SDS011;60680;52.182;5.398;2022-07-01T02:06:37;20.90;;;11.70;;
71975;SDS011;60680;52.182;5.398;2022-07-01T02:09:04;20.90;;;11.27;;
71975;SDS011;60680;52.182;5.398;2022-07-01T02:11:30;23.83;;;12.40;;
71975;SDS011;60680;52.182;5.398;2022-07-01T02:13:57;23.25;;;12.25;;
71975;SDS011;60680;52.182;5.398;2022-07-01T02:16:23;23.67;;;11.80;;
71975;SDS011;60680;52.182;5.398;2022-07-01T02:18:50;26.02;;;12.38;;
71975;SDS011;60680;52.182;5.398;2022-07-01T02:21:16;20.87;;;11.17;;
71975;SDS011;60680;52.182;5.398;2022-07-01T02:23:43;22.20;;;12.15;;
71975;SDS011;60680;52.182;5.398;2022-07-01T02:26:09;22.52;;;11.20;;
71975;SDS011;60680;52.182;5.398;2022-07-01T02:28:35;20.73;;;11.25;;
71975;SDS011;60680;52.182;5.398;2022-07-01T02:31:02;23.42;;;12.32;;
71975;SDS011;60680;52.182;5.398;2022-07-01T02:33:29;21.73;;;11.40;;
71975;SDS011;60680;52.182;5.398;2022-07-01T02:35:56;22.50;;;11.80;;
71975;SDS011;60680;52.182;5.398;2022-07-01T02:38:23;24.70;;;12.40;;
71975;SDS011;60680;52.182;5.398;2022-07-01T02:40:50;24.75;;;12.10;;
71975;SDS011;60680;52.182;5.398;2022-07-01T02:43:16;21.17;;;11.88;;
71975;SDS011;60680;52.182;5.398;2022-07-01T02:45:43;20.87;;;11.40;;
71975;SDS011;60680;52.182;5.398;2022-07-01T02:48:09;24.25;;;12.68;;
71975;SDS011;60680;52.182;5.398;2022-07-01T02:50:36;22.90;;;11.82;;
71975;SDS011;60680;52.182;5.398;2022-07-01T02:53:02;27.30;;;12.27;;
71975;SDS011;60680;52.182;5.398;2022-07-01T02:55:29;22.25;;;12.60;;
71975;SDS011;60680;52.182;5.398;2022-07-01T02:57:56;23.93;;;11.73;;
71975;SDS011;60680;52.182;5.398;2022-07-01T03:00:23;24.35;;;11.95;;
71975;SDS011;60680;52.182;5.398;2022-07-01T03:02:50;25.63;;;12.40;;
71975;SDS011;60680;52.182;5.398;2022-07-01T03:05:16;24.13;;;11.82;;
71975;SDS011;60680;52.182;5.398;2022-07-01T03:07:43;22.40;;;11.93;;
71975;SDS011;60680;52.182;5.398;2022-07-01T03:10:10;22.43;;;11.60;;
71975;SDS011;60680;52.182;5.398;2022-07-01T03:12:37;22.88;;;11.52;;
71975;SDS011;60680;52.182;5.398;2022-07-01T03:15:09;20.17;;;11.20;;
71975;SDS011;60680;52.182;5.398;2022-07-01T03:17:38;23.67;;;11.95;;
71975;SDS011;60680;52.182;5.398;2022-07-01T03:20:11;21.88;;;11.95;;
71975;SDS011;60680;52.182;5.398;2022-07-01T03:22:40;23.20;;;11.30;;
71975;SDS011;60680;52.182;5.398;2022-07-01T03:25:07;23.85;;;11.68;;
71975;SDS011;60680;52.182;5.398;2022-07-01T03:27:35;24.35;;;12.65;;
71975;SDS011;60680;52.182;5.398;2022-07-01T03:30:02;22.17;;;11.23;;
71975;SDS011;60680;52.182;5.398;2022-07-01T03:32:31;23.05;;;11.93;;
71975;SDS011;60680;52.182;5.398;2022-07-01T03:34:58;24.23;;;12.13;;
71975;SDS011;60680;52.182;5.398;2022-07-01T03:37:24;22.40;;;11.52;;
71975;SDS011;60680;52.182;5.398;2022-07-01T03:39:51;22.45;;;11.95;;
71975;SDS011;60680;52.182;5.398;2022-07-01T03:42:19;25.27;;;12.13;;
71975;SDS011;60680;52.182;5.398;2022-07-01T03:44:46;25.92;;;11.73;;
71975;SDS011;60680;52.182;5.398;2022-07-01T03:47:12;25.87;;;12.67;;
71975;SDS011;60680;52.182;5.398;2022-07-01T03:49:40;25.45;;;12.88;;
71975;SDS011;60680;52.182;5.398;2022-07-01T03:52:08;25.65;;;12.85;;
71975;SDS011;60680;52.182;5.398;2022-07-01T03:54:40;25.50;;;13.10;;
71975;SDS011;60680;52.182;5.398;2022-07-01T03:57:08;27.10;;;13.45;;
71975;SDS011;60680;52.182;5.398;2022-07-01T03:59:36;26.13;;;12.13;;
71975;SDS011;60680;52.182;5.398;2022-07-01T04:02:04;28.60;;;12.95;;
71975;SDS011;60680;52.182;5.398;2022-07-01T04:04:32;29.20;;;13.52;;
71975;SDS011;60680;52.182;5.398;2022-07-01T04:06:59;29.00;;;13.15;;
71975;SDS011;60680;52.182;5.398;2022-07-01T04:09:28;30.83;;;13.65;;
71975;SDS011;60680;52.182;5.398;2022-07-01T04:11:56;34.50;;;13.43;;
71975;SDS011;60680;52.182;5.398;2022-07-01T04:14:23;30.10;;;13.77;;
71975;SDS011;60680;52.182;5.398;2022-07-01T04:16:50;29.70;;;13.20;;
71975;SDS011;60680;52.182;5.398;2022-07-01T04:19:18;29.42;;;13.48;;
71975;SDS011;60680;52.182;5.398;2022-07-01T04:21:45;29.77;;;13.45;;
71975;SDS011;60680;52.182;5.398;2022-07-01T04:24:30;27.57;;;13.50;;
71975;SDS011;60680;52.182;5.398;2022-07-01T04:26:58;26.25;;;13.63;;
71975;SDS011;60680;52.182;5.398;2022-07-01T04:29:29;27.13;;;13.27;;
71975;SDS011;60680;52.182;5.398;2022-07-01T04:31:56;27.23;;;13.50;;
71975;SDS011;60680;52.182;5.398;2022-07-01T04:34:24;28.60;;;13.27;;
71975;SDS011;60680;52.182;5.398;2022-07-01T04:36:51;27.13;;;12.33;;
71975;SDS011;60680;52.182;5.398;2022-07-01T04:39:18;26.38;;;12.90;;
71975;SDS011;60680;52.182;5.398;2022-07-01T04:41:44;29.05;;;13.27;;
71975;SDS011;60680;52.182;5.398;2022-07-01T04:44:28;26.70;;;13.20;;
71975;SDS011;60680;52.182;5.398;2022-07-01T04:46:56;26.70;;;12.98;;
71975;SDS011;60680;52.182;5.398;2022-07-01T04:49:24;27.33;;;12.17;;
71975;SDS011;60680;52.182;5.398;2022-07-01T04:51:51;29.30;;;13.80;;
71975;SDS011;60680;52.182;5.398;2022-07-01T04:54:18;28.35;;;12.85;;
71975;SDS011;60680;52.182;5.398;2022-07-01T04:56:45;24.58;;;12.55;;
71975;SDS011;60680;52.182;5.398;2022-07-01T04:59:12;25.58;;;12.52;;
71975;SDS011;60680;52.182;5.398;2022-07-01T05:01:41;26.27;;;12.47;;
71975;SDS011;60680;52.182;5.398;2022-07-01T05:04:09;27.48;;;13.20;;
71975;SDS011;60680;52.182;5.398;2022-07-01T05:06:36;28.13;;;13.25;;
71975;SDS011;60680;52.182;5.398;2022-07-01T05:09:03;25.27;;;13.07;;
71975;SDS011;60680;52.182;5.398;2022-07-01T05:11:30;23.77;;;12.50;;
71975;SDS011;60680;52.182;5.398;2022-07-01T05:13:57;24.93;;;12.57;;
71975;SDS011;60680;52.182;5.398;2022-07-01T05:16:24;28.00;;;12.48;;
71975;SDS011;60680;52.182;5.398;2022-07-01T05:18:51;26.85;;;12.60;;
71975;SDS011;60680;52.182;5.398;2022-07-01T05:21:36;28.42;;;13.23;;
71975;SDS011;60680;52.182;5.398;2022-07-01T05:24:21;24.02;;;11.82;;
71975;SDS011;60680;52.182;5.398;2022-07-01T05:26:54;27.37;;;12.50;;
71975;SDS011;60680;52.182;5.398;2022-07-01T05:29:21;28.60;;;12.52;;
71975;SDS011;60680;52.182;5.398;2022-07-01T05:31:48;25.67;;;11.93;;
71975;SDS011;60680;52.182;5.398;2022-07-01T05:34:15;26.92;;;11.82;;
71975;SDS011;60680;52.182;5.398;2022-07-01T05:36:41;24.73;;;11.63;;
71975;SDS011;60680;52.182;5.398;2022-07-01T05:39:08;26.30;;;12.87;;
71975;SDS011;60680;52.182;5.398;2022-07-01T05:41:34;23.02;;;11.90;;
71975;SDS011;60680;52.182;5.398;2022-07-01T05:44:01;27.55;;;12.85;;
71975;SDS011;60680;52.182;5.398;2022-07-01T05:46:28;25.40;;;12.95;;
71975;SDS011;60680;52.182;5.398;2022-07-01T05:48:55;25.10;;;11.73;;
71975;SDS011;60680;52.182;5.398;2022-07-01T05:51:22;23.80;;;11.57;;
71975;SDS011;60680;52.182;5.398;2022-07-01T05:53:48;22.52;;;11.25;;
71975;SDS011;60680;52.182;5.398;2022-07-01T05:56:15;25.50;;;12.32;;
71975;SDS011;60680;52.182;5.398;2022-07-01T05:58:42;22.40;;;11.45;;
71975;SDS011;60680;52.182;5.398;2022-07-01T06:01:08;21.83;;;11.55;;
71975;SDS011;60680;52.182;5.398;2022-07-01T06:03:35;21.87;;;11.73;;
71975;SDS011;60680;52.182;5.398;2022-07-01T06:06:02;22.88;;;11.48;;
71975;SDS011;60680;52.182;5.398;2022-07-01T06:08:30;24.98;;;12.43;;
71975;SDS011;60680;52.182;5.398;2022-07-01T06:10:57;21.67;;;11.55;;
71975;SDS011;60680;52.182;5.398;2022-07-01T06:13:23;22.67;;;11.27;;
71975;SDS011;60680;52.182;5.398;2022-07-01T06:15:50;22.30;;;11.57;;
71975;SDS011;60680;52.182;5.398;2022-07-01T06:18:17;23.58;;;10.68;;
71975;SDS011;60680;52.182;5.398;2022-07-01T06:20:44;23.10;;;11.02;;
71975;SDS011;60680;52.182;5.398;2022-07-01T06:23:11;21.90;;;11.55;;
71975;SDS011;60680;52.182;5.398;2022-07-01T06:25:38;23.90;;;11.57;;
71975;SDS011;60680;52.182;5.398;2022-07-01T06:28:04;22.50;;;10.60;;
71975;SDS011;60680;52.182;5.398;2022-07-01T06:30:31;19.15;;;10.35;;
71975;SDS011;60680;52.182;5.398;2022-07-01T06:32:57;20.65;;;10.10;;
71975;SDS011;60680;52.182;5.398;2022-07-01T06:35:24;19.42;;;10.68;;
71975;SDS011;60680;52.182;5.398;2022-07-01T06:37:51;17.23;;;9.48;;
71975;SDS011;60680;52.182;5.398;2022-07-01T06:40:22;20.33;;;9.60;;
71975;SDS011;60680;52.182;5.398;2022-07-01T06:42:49;18.10;;;9.18;;
71975;SDS011;60680;52.182;5.398;2022-07-01T06:45:16;20.10;;;9.77;;
71975;SDS011;60680;52.182;5.398;2022-07-01T06:47:43;25.45;;;10.20;;
71975;SDS011;60680;52.182;5.398;2022-07-01T06:50:09;18.05;;;9.40;;
71975;SDS011;60680;52.182;5.398;2022-07-01T06:52:36;19.60;;;9.07;;
71975;SDS011;60680;52.182;5.398;2022-07-01T06:55:02;17.83;;;9.57;;
71975;SDS011;60680;52.182;5.398;2022-07-01T06:57:32;18.60;;;9.20;;
71975;SDS011;60680;52.182;5.398;2022-07-01T06:59:59;17.45;;;8.55;;
71975;SDS011;60680;52.182;5.398;2022-07-01T07:02:27;13.70;;;8.20;;
71975;SDS011;60680;52.182;5.398;2022-07-01T07:04:55;15.57;;;9.03;;
71975;SDS011;60680;52.182;5.398;2022-07-01T07:07:27;18.00;;;7.88;;
71975;SDS011;60680;52.182;5.398;2022-07-01T07:09:54;13.32;;;8.75;;
71975;SDS011;60680;52.182;5.398;2022-07-01T07:12:23;12.70;;;7.45;;
71975;SDS011;60680;52.182;5.398;2022-07-01T07:14:49;12.40;;;7.50;;
71975;SDS011;60680;52.182;5.398;2022-07-01T07:17:16;13.93;;;7.77;;
71975;SDS011;60680;52.182;5.398;2022-07-01T07:19:43;11.52;;;7.00;;
71975;SDS011;60680;52.182;5.398;2022-07-01T07:22:12;11.32;;;7.32;;
71975;SDS011;60680;52.182;5.398;2022-07-01T07:24:39;14.27;;;6.63;;
71975;SDS011;60680;52.182;5.398;2022-07-01T07:27:06;10.38;;;6.88;;
71975;SDS011;60680;52.182;5.398;2022-07-01T07:29:33;9.60;;;6.07;;
71975;SDS011;60680;52.182;5.398;2022-07-01T07:32:00;11.45;;;6.28;;
71975;SDS011;60680;52.182;5.398;2022-07-01T07:34:27;9.02;;;5.35;;
71975;SDS011;60680;52.182;5.398;2022-07-01T07:36:54;10.45;;;5.70;;
71975;SDS011;60680;52.182;5.398;2022-07-01T07:39:21;9.32;;;5.07;;
71975;SDS011;60680;52.182;5.398;2022-07-01T07:41:47;9.77;;;4.90;;
71975;SDS011;60680;52.182;5.398;2022-07-01T07:44:16;7.90;;;3.45;;
71975;SDS011;60680;52.182;5.398;2022-07-01T07:46:43;7.72;;;3.67;;
71975;SDS011;60680;52.182;5.398;2022-07-01T07:49:10;4.78;;;3.30;;
71975;SDS011;60680;52.182;5.398;2022-07-01T07:51:36;5.45;;;2.78;;
71975;SDS011;60680;52.182;5.398;2022-07-01T07:54:06;7.43;;;3.30;;
71975;SDS011;60680;52.182;5.398;2022-07-01T07:56:33;7.30;;;3.15;;
71975;SDS011;60680;52.182;5.398;2022-07-01T07:59:00;7.63;;;3.92;;
71975;SDS011;60680;52.182;5.398;2022-07-01T08:01:26;4.70;;;3.08;;
71975;SDS011;60680;52.182;5.398;2022-07-01T08:03:53;5.22;;;3.10;;
71975;SDS011;60680;52.182;5.398;2022-07-01T08:06:19;5.73;;;2.80;;
71975;SDS011;60680;52.182;5.398;2022-07-01T08:08:46;7.88;;;2.90;;
71975;SDS011;60680;52.182;5.398;2022-07-01T08:11:13;6.60;;;2.80;;
71975;SDS011;60680;52.182;5.398;2022-07-01T08:13:40;5.70;;;2.42;;
71975;SDS011;60680;52.182;5.398;2022-07-01T08:16:07;5.18;;;1.83;;
71975;SDS011;60680;52.182;5.398;2022-07-01T08:18:34;4.43;;;1.77;;
71975;SDS011;60680;52.182;5.398;2022-07-01T08:21:02;7.35;;;2.13;;
71975;SDS011;60680;52.182;5.398;2022-07-01T08:23:29;5.95;;;2.33;;
71975;SDS011;60680;52.182;5.398;2022-07-01T08:25:55;4.40;;;2.00;;
71975;SDS011;60680;52.182;5.398;2022-07-01T08:28:22;8.25;;;2.13;;
71975;SDS011;60680;52.182;5.398;2022-07-01T08:33:24;5.07;;;1.95;;
71975;SDS011;60680;52.182;5.398;2022-07-01T08:35:51;5.47;;;2.00;;
71975;SDS011;60680;52.182;5.398;2022-07-01T08:38:17;6.07;;;2.20;;
71975;SDS011;60680;52.182;5.398;2022-07-01T08:40:48;4.32;;;1.90;;
71975;SDS011;60680;52.182;5.398;2022-07-01T08:43:19;9.13;;;2.40;;
71975;SDS011;60680;52.182;5.398;2022-07-01T08:45:46;3.72;;;1.42;;
71975;SDS011;60680;52.182;5.398;2022-07-01T08:48:14;3.78;;;1.40;;
71975;SDS011;60680;52.182;5.398;2022-07-01T08:50:40;5.00;;;1.27;;
71975;SDS011;60680;52.182;5.398;2022-07-01T08:53:08;5.78;;;1.20;;
71975;SDS011;60680;52.182;5.398;2022-07-01T08:55:36;5.00;;;1.13;;
71975;SDS011;60680;52.182;5.398;2022-07-01T08:58:23;5.78;;;1.40;;
71975;SDS011;60680;52.182;5.398;2022-07-01T09:00:51;5.07;;;0.95;;
71975;SDS011;60680;52.182;5.398;2022-07-01T09:03:25;4.00;;;1.15;;
71975;SDS011;60680;52.182;5.398;2022-07-01T09:05:52;5.57;;;1.10;;
71975;SDS011;60680;52.182;5.398;2022-07-01T09:08:19;3.20;;;1.00;;
71975;SDS011;60680;52.182;5.398;2022-07-01T09:10:45;2.55;;;0.98;;
71975;SDS011;60680;52.182;5.398;2022-07-01T09:13:13;3.30;;;1.10;;
71975;SDS011;60680;52.182;5.398;2022-07-01T09:15:41;3.85;;;0.90;;
71975;SDS011;60680;52.182;5.398;2022-07-01T09:18:14;5.40;;;1.05;;
71975;SDS011;60680;52.182;5.398;2022-07-01T09:20:43;3.43;;;0.97;;
71975;SDS011;60680;52.182;5.398;2022-07-01T09:23:11;4.93;;;0.90;;
71975;SDS011;60680;52.182;5.398;2022-07-01T09:25:43;4.32;;;0.90;;
71975;SDS011;60680;52.182;5.398;2022-07-01T09:28:23;2.58;;;1.00;;
71975;SDS011;60680;52.182;5.398;2022-07-01T09:30:56;2.63;;;0.80;;
71975;SDS011;60680;52.182;5.398;2022-07-01T09:33:24;4.07;;;1.23;;
71975;SDS011;60680;52.182;5.398;2022-07-01T09:35:57;4.78;;;0.68;;
71975;SDS011;60680;52.182;5.398;2022-07-01T09:38:25;5.15;;;0.60;;
71975;SDS011;60680;52.182;5.398;2022-07-01T09:41:00;2.22;;;0.70;;
71975;SDS011;60680;52.182;5.398;2022-07-01T09:43:29;3.85;;;0.85;;
71975;SDS011;60680;52.182;5.398;2022-07-01T09:48:48;6.03;;;0.75;;
71975;SDS011;60680;52.182;5.398;2022-07-01T09:51:14;3.72;;;0.55;;
71975;SDS011;60680;52.182;5.398;2022-07-01T09:53:42;2.83;;;0.40;;
71975;SDS011;60680;52.182;5.398;2022-07-01T09:56:09;4.13;;;0.40;;
71975;SDS011;60680;52.182;5.398;2022-07-01T09:58:36;2.30;;;0.40;;
71975;SDS011;60680;52.182;5.398;2022-07-01T10:01:05;2.50;;;0.40;;
71975;SDS011;60680;52.182;5.398;2022-07-01T10:03:36;3.22;;;0.40;;
71975;SDS011;60680;52.182;5.398;2022-07-01T10:11:17;4.47;;;0.50;;
71975;SDS011;60680;52.182;5.398;2022-07-01T10:13:44;1.05;;;0.25;;
71975;SDS011;60680;52.182;5.398;2022-07-01T10:16:18;3.90;;;0.20;;
71975;SDS011;60680;52.182;5.398;2022-07-01T10:18:46;1.73;;;0.20;;
71975;SDS011;60680;52.182;5.398;2022-07-01T10:21:25;2.05;;;0.20;;
71975;SDS011;60680;52.182;5.398;2022-07-01T10:23:56;2.77;;;0.30;;
71975;SDS011;60680;52.182;5.398;2022-07-01T10:26:38;2.13;;;0.30;;
71975;SDS011;60680;52.182;5.398;2022-07-01T10:29:05;0.98;;;0.20;;
71975;SDS011;60680;52.182;5.398;2022-07-01T10:31:37;1.58;;;0.30;;
71975;SDS011;60680;52.182;5.398;2022-07-01T10:34:07;1.55;;;0.30;;
71975;SDS011;60680;52.182;5.398;2022-07-01T10:36:37;2.50;;;0.30;;
71975;SDS011;60680;52.182;5.398;2022-07-01T10:44:03;0.80;;;0.20;;
71975;SDS011;60680;52.182;5.398;2022-07-01T10:52:12;2.80;;;0.40;;
71975;SDS011;60680;52.182;5.398;2022-07-01T10:59:41;3.13;;;0.52;;
71975;SDS011;60680;52.182;5.398;2022-07-01T11:02:16;2.20;;;0.50;;
71975;SDS011;60680;52.182;5.398;2022-07-01T11:04:49;3.40;;;0.30;;
71975;SDS011;60680;52.182;5.398;2022-07-01T11:07:17;4.13;;;0.32;;
71975;SDS011;60680;52.182;5.398;2022-07-01T11:09:44;2.58;;;0.30;;
71975;SDS011;60680;52.182;5.398;2022-07-01T11:12:10;2.95;;;0.60;;
71975;SDS011;60680;52.182;5.398;2022-07-01T11:14:37;1.97;;;0.47;;
71975;SDS011;60680;52.182;5.398;2022-07-01T11:17:07;4.82;;;0.40;;
71975;SDS011;60680;52.182;5.398;2022-07-01T11:19:36;1.73;;;0.28;;
71975;SDS011;60680;52.182;5.398;2022-07-01T11:22:03;2.05;;;0.40;;
71975;SDS011;60680;52.182;5.398;2022-07-01T11:24:31;2.17;;;0.30;;
71975;SDS011;60680;52.182;5.398;2022-07-01T11:27:05;1.97;;;0.20;;
71975;SDS011;60680;52.182;5.398;2022-07-01T11:29:33;2.97;;;0.30;;
71975;SDS011;60680;52.182;5.398;2022-07-01T11:32:01;2.80;;;0.60;;
71975;SDS011;60680;52.182;5.398;2022-07-01T11:34:28;2.42;;;0.30;;
71975;SDS011;60680;52.182;5.398;2022-07-01T11:36:55;1.17;;;0.28;;
71975;SDS011;60680;52.182;5.398;2022-07-01T11:39:46;2.63;;;0.40;;
71975;SDS011;60680;52.182;5.398;2022-07-01T11:42:13;1.33;;;0.38;;
71975;SDS011;60680;52.182;5.398;2022-07-01T11:44:40;1.27;;;0.22;;
71975;SDS011;60680;52.182;5.398;2022-07-01T11:47:10;1.77;;;0.30;;
71975;SDS011;60680;52.182;5.398;2022-07-01T11:49:44;2.58;;;0.30;;
71975;SDS011;60680;52.182;5.398;2022-07-01T11:52:12;0.93;;;0.20;;
71975;SDS011;60680;52.182;5.398;2022-07-01T11:54:40;2.28;;;0.20;;
71975;SDS011;60680;52.182;5.398;2022-07-01T11:57:11;1.73;;;0.22;;
71975;SDS011;60680;52.182;5.398;2022-07-01T11:59:56;3.40;;;0.30;;
71975;SDS011;60680;52.182;5.398;2022-07-01T12:02:23;2.75;;;0.47;;
71975;SDS011;60680;52.182;5.398;2022-07-01T12:04:50;1.60;;;0.20;;
71975;SDS011;60680;52.182;5.398;2022-07-01T12:07:19;2.15;;;0.20;;
71975;SDS011;60680;52.182;5.398;2022-07-01T12:09:50;4.50;;;0.30;;
71975;SDS011;60680;52.182;5.398;2022-07-01T12:12:18;1.50;;;0.20;;
71975;SDS011;60680;52.182;5.398;2022-07-01T12:14:49;2.80;;;0.40;;
71975;SDS011;60680;52.182;5.398;2022-07-01T12:17:21;1.63;;;0.30;;
71975;SDS011;60680;52.182;5.398;2022-07-01T12:19:49;2.80;;;0.30;;
71975;SDS011;60680;52.182;5.398;2022-07-01T12:22:25;0.88;;;0.30;;
71975;SDS011;60680;52.182;5.398;2022-07-01T12:25:03;0.57;;;0.20;;
71975;SDS011;60680;52.182;5.398;2022-07-01T12:27:34;2.00;;;0.30;;
71975;SDS011;60680;52.182;5.398;2022-07-01T12:30:02;1.63;;;0.20;;
71975;SDS011;60680;52.182;5.398;2022-07-01T12:32:29;2.08;;;0.40;;
71975;SDS011;60680;52.182;5.398;2022-07-01T12:34:58;2.00;;;0.20;;
71975;SDS011;60680;52.182;5.398;2022-07-01T12:37:31;1.52;;;0.30;;
71975;SDS011;60680;52.182;5.398;2022-07-01T12:42:40;1.73;;;0.37;;
71975;SDS011;60680;52.182;5.398;2022-07-01T12:45:09;2.75;;;0.30;;
71975;SDS011;60680;52.182;5.398;2022-07-01T12:47:39;1.50;;;0.30;;
71975;SDS011;60680;52.182;5.398;2022-07-01T12:52:34;1.58;;;0.32;;
71975;SDS011;60680;52.182;5.398;2022-07-01T12:55:12;1.57;;;0.40;;
71975;SDS011;60680;52.182;5.398;2022-07-01T12:57:43;1.77;;;0.35;;
71975;SDS011;60680;52.182;5.398;2022-07-01T13:00:12;1.05;;;0.40;;
71975;SDS011;60680;52.182;5.398;2022-07-01T13:02:39;2.88;;;0.30;;
71975;SDS011;60680;52.182;5.398;2022-07-01T13:05:05;1.38;;;0.40;;
71975;SDS011;60680;52.182;5.398;2022-07-01T13:07:32;4.53;;;0.50;;
71975;SDS011;60680;52.182;5.398;2022-07-01T13:09:58;0.90;;;0.30;;
71975;SDS011;60680;52.182;5.398;2022-07-01T13:12:25;2.90;;;0.50;;
71975;SDS011;60680;52.182;5.398;2022-07-01T13:14:51;1.42;;;0.30;;
71975;SDS011;60680;52.182;5.398;2022-07-01T13:17:17;1.02;;;0.38;;
71975;SDS011;60680;52.182;5.398;2022-07-01T13:19:44;1.13;;;0.20;;
71975;SDS011;60680;52.182;5.398;2022-07-01T13:22:11;2.33;;;0.40;;
71975;SDS011;60680;52.182;5.398;2022-07-01T13:24:37;0.90;;;0.68;;
71975;SDS011;60680;52.182;5.398;2022-07-01T13:27:04;3.50;;;0.50;;
71975;SDS011;60680;52.182;5.398;2022-07-01T13:29:30;1.15;;;0.40;;
71975;SDS011;60680;52.182;5.398;2022-07-01T13:31:57;1.23;;;0.40;;
71975;SDS011;60680;52.182;5.398;2022-07-01T13:34:24;3.92;;;0.43;;
71975;SDS011;60680;52.182;5.398;2022-07-01T13:36:50;1.92;;;0.30;;
71975;SDS011;60680;52.182;5.398;2022-07-01T13:39:17;1.00;;;0.30;;
71975;SDS011;60680;52.182;5.398;2022-07-01T13:41:43;3.72;;;0.50;;
71975;SDS011;60680;52.182;5.398;2022-07-01T13:44:10;3.27;;;0.40;;
71975;SDS011;60680;52.182;5.398;2022-07-01T13:46:37;3.65;;;0.30;;
71975;SDS011;60680;52.182;5.398;2022-07-01T13:49:11;3.92;;;0.40;;
71975;SDS011;60680;52.182;5.398;2022-07-01T13:51:38;3.17;;;0.40;;
71975;SDS011;60680;52.182;5.398;2022-07-01T13:54:04;2.63;;;0.35;;
71975;SDS011;60680;52.182;5.398;2022-07-01T13:56:31;2.40;;;0.40;;
71975;SDS011;60680;52.182;5.398;2022-07-01T13:58:57;2.03;;;0.43;;
71975;SDS011;60680;52.182;5.398;2022-07-01T14:01:24;2.88;;;0.45;;
71975;SDS011;60680;52.182;5.398;2022-07-01T14:03:51;2.53;;;0.30;;
71975;SDS011;60680;52.182;5.398;2022-07-01T14:06:18;1.63;;;0.40;;
71975;SDS011;60680;52.182;5.398;2022-07-01T14:08:45;2.17;;;0.30;;
71975;SDS011;60680;52.182;5.398;2022-07-01T14:11:12;2.63;;;0.30;;
71975;SDS011;60680;52.182;5.398;2022-07-01T14:13:39;2.00;;;0.50;;
71975;SDS011;60680;52.182;5.398;2022-07-01T14:16:07;2.58;;;0.38;;
71975;SDS011;60680;52.182;5.398;2022-07-01T14:18:33;3.85;;;0.57;;
71975;SDS011;60680;52.182;5.398;2022-07-01T14:21:01;1.50;;;0.50;;
71975;SDS011;60680;52.182;5.398;2022-07-01T14:23:29;2.45;;;0.95;;
71975;SDS011;60680;52.182;5.398;2022-07-01T14:25:58;2.65;;;0.50;;
71975;SDS011;60680;52.182;5.398;2022-07-01T14:28:25;1.73;;;0.40;;
71975;SDS011;60680;52.182;5.398;2022-07-01T14:30:52;3.92;;;0.82;;
71975;SDS011;60680;52.182;5.398;2022-07-01T14:33:20;1.33;;;0.37;;
71975;SDS011;60680;52.182;5.398;2022-07-01T14:35:48;2.00;;;1.15;;
71975;SDS011;60680;52.182;5.398;2022-07-01T14:38:21;2.88;;;0.57;;
71975;SDS011;60680;52.182;5.398;2022-07-01T14:40:48;2.15;;;0.50;;
71975;SDS011;60680;52.182;5.398;2022-07-01T14:43:17;2.35;;;0.43;;
71975;SDS011;60680;52.182;5.398;2022-07-01T14:45:44;2.43;;;0.37;;
71975;SDS011;60680;52.182;5.398;2022-07-01T14:48:12;2.55;;;0.38;;
71975;SDS011;60680;52.182;5.398;2022-07-01T14:50:40;2.22;;;0.40;;
71975;SDS011;60680;52.182;5.398;2022-07-01T14:53:08;1.77;;;0.50;;
71975;SDS011;60680;52.182;5.398;2022-07-01T14:55:35;2.92;;;0.40;;
71975;SDS011;60680;52.182;5.398;2022-07-01T14:58:02;0.93;;;0.40;;
71975;SDS011;60680;52.182;5.398;2022-07-01T15:00:29;1.40;;;0.30;;
71975;SDS011;60680;52.182;5.398;2022-07-01T15:02:57;1.92;;;0.40;;
71975;SDS011;60680;52.182;5.398;2022-07-01T15:05:25;1.20;;;0.40;;
71975;SDS011;60680;52.182;5.398;2022-07-01T15:07:53;0.98;;;0.30;;
71975;SDS011;60680;52.182;5.398;2022-07-01T15:10:19;2.30;;;0.40;;
71975;SDS011;60680;52.182;5.398;2022-07-01T15:12:47;2.65;;;0.30;;